Time;durP1;ratioP1;P1;durP2;ratioP2;P2;SDS_P1;SDS_P2;PMS_P1;PMS_P2;Temp;Humidity;BMP_temperature;BMP_pressure;BME280_temperature;BME280_humidity;BME280_pressure;Samples;Min_cycle;Max_cycle;Signal;HPM_P1;HPM_P2
2023/01/15 00:00:58;;;;;;;33.85;8.07;;;;;;;22.01;60.34;97998.63;7309516;19;129201;-40
2023/01/15 00:03:24;;;;;;;49.83;9.07;;;;;;;22.03;60.00;97991.41;7309060;19;129112;-39
2023/01/15 00:05:49;;;;;;;22.15;6.50;;;;;;;22.03;59.73;98001.88;7307679;19;130158;-39
2023/01/15 00:08:15;;;;;;;46.30;8.60;;;;;;;22.03;59.67;98002.72;7307673;19;129936;-37
2023/01/15 00:10:40;;;;;;;27.13;6.22;;;;;;;22.03;60.18;97996.66;7307726;19;129755;-40
2023/01/15 00:13:05;;;;;;;51.58;9.00;;;;;;;22.03;59.76;97997.47;7305820;19;129298;-38
2023/01/15 00:15:31;;;;;;;28.13;6.57;;;;;;;22.02;60.10;98000.25;7305587;19;129239;-39
2023/01/15 00:17:56;;;;;;;38.83;8.37;;;;;;;22.01;60.61;97991.59;7305544;19;129720;-39
2023/01/15 00:20:22;;;;;;;19.83;5.90;;;;;;;22.02;60.47;97979.31;7309114;19;129597;-39
2023/01/15 00:22:47;;;;;;;27.55;6.70;;;;;;;22.02;60.15;97976.69;7309169;19;129190;-38
2023/01/15 00:27:56;;;;;;;17.33;5.82;;;;;;;22.02;60.18;97981.94;7310588;19;129092;-37
2023/01/15 00:30:23;;;;;;;27.88;6.90;;;;;;;22.02;60.77;97987.16;7308886;19;129450;-37
2023/01/15 00:32:48;;;;;;;24.10;5.65;;;;;;;22.02;59.85;97992.38;7302537;19;129099;-39
2023/01/15 00:35:20;;;;;;;56.63;10.05;;;;;;;21.90;60.45;97958.84;7308692;19;129149;-39
2023/01/15 00:37:46;;;;;;;38.35;7.80;;;;;;;22.02;60.32;97963.59;7309501;19;129473;-41
2023/01/15 00:40:13;;;;;;;26.37;6.53;;;;;;;21.98;60.06;97957.13;7307215;19;129513;-42
2023/01/15 00:42:38;;;;;;;30.20;6.55;;;;;;;22.01;60.10;97952.34;7307644;19;129565;-36
2023/01/15 00:45:09;;;;;;;38.43;7.57;;;;;;;21.98;59.92;97936.19;7305439;19;129468;-40
2023/01/15 00:47:42;;;;;;;18.77;5.72;;;;;;;22.00;61.32;97942.06;7310617;19;129320;-41
2023/01/15 00:50:14;;;;;;;35.53;7.13;;;;;;;22.00;60.99;97942.06;7306534;19;129549;-39
2023/01/15 00:52:40;;;;;;;28.00;6.13;;;;;;;21.96;60.79;97931.94;7307553;19;129662;-35
2023/01/15 00:55:07;;;;;;;68.20;11.50;;;;;;;21.98;60.64;97932.56;7306668;19;129437;-37
2023/01/15 00:57:33;;;;;;;28.25;5.78;;;;;;;21.98;60.18;97940.41;7313487;19;129893;-40
2023/01/15 00:59:58;;;;;;;33.37;7.37;;;;;;;21.98;60.02;97930.97;7316181;19;129233;-40
2023/01/15 01:02:24;;;;;;;25.05;5.68;;;;;;;21.96;60.81;97924.09;7311987;19;129770;-38
2023/01/15 01:04:49;;;;;;;18.75;5.18;;;;;;;22.00;60.25;97934.22;7314886;19;129568;-39
2023/01/15 01:07:15;;;;;;;64.03;10.30;;;;;;;21.96;59.97;97924.09;7313907;19;130201;-36
2023/01/15 01:09:41;;;;;;;20.87;4.93;;;;;;;21.90;60.66;97908.31;7313973;19;129375;-39
2023/01/15 01:12:06;;;;;;;39.85;7.65;;;;;;;21.96;60.23;97918.06;7314307;19;129269;-41
2023/01/15 01:14:32;;;;;;;74.00;11.03;;;;;;;21.91;60.00;97908.13;7311121;19;129576;-38
2023/01/15 01:16:57;;;;;;;19.73;4.83;;;;;;;21.98;59.88;97911.63;7315307;19;129965;-41
2023/01/15 01:19:23;;;;;;;35.55;6.05;;;;;;;21.91;60.79;97895.03;7316180;19;129423;-38
2023/01/15 01:21:50;;;;;;;26.15;5.72;;;;;;;21.98;60.80;97904.78;7311964;19;131411;-39
2023/01/15 01:24:18;;;;;;;;;;;;;;;22.04;60.85;97904.88;7315069;19;129327;-40
2023/01/15 01:26:44;;;;;;;23.00;5.60;;;;;;;21.98;60.39;97901.16;7312790;19;129475;-40
2023/01/15 01:29:19;;;;;;;26.35;5.47;;;;;;;21.97;60.90;97903.97;7315847;19;130211;-39
2023/01/15 01:31:45;;;;;;;28.00;6.15;;;;;;;21.96;60.84;97892.69;7312505;19;129708;-37
2023/01/15 01:34:11;;;;;;;37.05;6.70;;;;;;;21.95;60.46;97896.31;7313768;19;129168;-37
2023/01/15 01:36:39;;;;;;;24.33;5.90;;;;;;;21.95;60.77;97880.59;7310626;19;129187;-41
2023/01/15 01:39:05;;;;;;;30.45;6.50;;;;;;;21.95;60.22;97877.19;7315234;19;129681;-36
2023/01/15 01:41:31;;;;;;;44.80;7.90;;;;;;;21.96;60.15;97878.81;7312125;19;128856;-35
2023/01/15 01:43:59;;;;;;;35.87;6.03;;;;;;;21.95;61.06;97885.84;7313068;19;129547;-40
2023/01/15 01:46:26;;;;;;;22.70;5.07;;;;;;;21.94;60.06;97872.94;7313252;19;130219;-42
2023/01/15 01:48:59;;;;;;;17.10;4.47;;;;;;;21.95;60.65;97885.03;7314061;19;130785;-41
2023/01/15 01:51:28;;;;;;;30.20;6.13;;;;;;;21.93;60.89;97877.34;7315006;19;129008;-39
2023/01/15 01:53:55;;;;;;;22.10;4.80;;;;;;;21.94;60.37;97867.72;7311508;19;130407;-38
2023/01/15 01:56:22;;;;;;;37.67;5.97;;;;;;;21.93;60.53;97869.50;7311517;19;129229;-37
2023/01/15 01:58:52;;;;;;;10.93;3.78;;;;;;;21.89;60.73;97860.44;7313578;19;130388;-38
2023/01/15 02:01:19;;;;;;;20.25;4.35;;;;;;;21.96;60.75;97863.13;7313393;19;129372;-40
2023/01/15 02:03:45;;;;;;;18.50;4.47;;;;;;;21.98;60.76;97857.69;7312280;19;128983;-40
2023/01/15 02:06:13;;;;;;;41.57;6.87;;;;;;;21.98;60.89;97857.69;7312652;19;129660;-40
2023/01/15 02:08:38;;;;;;;20.85;5.00;;;;;;;21.98;60.78;97861.13;7310952;19;129599;-40
2023/01/15 02:11:05;;;;;;;25.87;5.27;;;;;;;21.87;60.46;97836.25;7315291;19;129965;-39
2023/01/15 02:13:44;;;;;;;30.75;5.85;;;;;;;21.90;60.63;97846.34;7312965;19;129592;-39
2023/01/15 02:16:21;;;;;;;27.92;5.55;;;;;;;21.97;60.86;97854.25;7312114;19;129164;-40
2023/01/15 02:18:56;;;;;;;;;;;;;;;22.02;60.97;97844.06;7313981;19;129942;-41
2023/01/15 02:21:51;;;;;;;24.85;4.63;;;;;;;21.98;61.10;97845.44;7314390;19;129311;-41
2023/01/15 02:24:37;;;;;;;30.02;5.15;;;;;;;21.94;61.55;97837.13;7312728;19;129805;-38
2023/01/15 02:27:07;;;;;;;29.58;5.93;;;;;;;21.84;60.59;97820.09;7313303;19;131342;-40
2023/01/15 02:29:54;;;;;;;20.85;4.65;;;;;;;21.93;61.64;97835.50;7312556;19;130404;-40
2023/01/15 02:32:29;;;;;;;29.73;5.35;;;;;;;21.82;61.21;97817.66;7311232;19;129128;-39
2023/01/15 02:34:57;;;;;;;20.35;4.53;;;;;;;21.80;60.67;97827.50;7312348;19;129616;-41
2023/01/15 02:37:27;;;;;;;35.90;6.05;;;;;;;21.92;61.09;97843.53;7311089;19;129347;-38
2023/01/15 02:39:55;;;;;;;25.40;5.00;;;;;;;21.90;61.56;97840.28;7311216;19;129754;-37
2023/01/15 02:42:23;;;;;;;31.27;5.32;;;;;;;21.79;61.66;97823.28;7309436;19;129875;-38
2023/01/15 02:44:51;;;;;;;28.13;5.70;;;;;;;21.89;61.27;97831.66;7310072;19;129131;-38
2023/01/15 02:47:22;;;;;;;19.42;4.57;;;;;;;21.88;61.77;97816.91;7309783;19;130078;-35
2023/01/15 02:49:49;;;;;;;27.05;5.53;;;;;;;21.88;61.08;97826.59;7312782;19;129433;-38
2023/01/15 02:52:23;;;;;;;31.45;5.78;;;;;;;21.88;61.65;97816.91;7308206;19;130920;-39
2023/01/15 02:55:12;;;;;;;39.00;6.10;;;;;;;21.87;61.86;97799.63;7312767;19;129803;-39
2023/01/15 02:57:42;;;;;;;18.20;3.80;;;;;;;21.76;61.60;97781.78;7311082;19;131841;-39
2023/01/15 03:00:12;;;;;;;23.83;4.97;;;;;;;21.87;61.70;97804.84;7313186;19;129243;-38
2023/01/15 03:02:52;;;;;;;27.65;4.50;;;;;;;21.89;61.94;97796.81;7306367;19;129173;-36
2023/01/15 03:05:32;;;;;;;55.17;8.02;;;;;;;21.87;61.77;97799.63;7311759;19;129053;-36
2023/01/15 03:08:01;;;;;;;22.05;4.18;;;;;;;21.79;61.76;97786.66;7310939;19;129430;-38
2023/01/15 03:10:52;;;;;;;53.05;7.80;;;;;;;21.77;62.21;97777.34;7310914;19;131077;-36
2023/01/15 03:13:26;;;;;;;31.92;5.25;;;;;;;21.87;61.47;97794.38;7305355;19;129863;-37
2023/01/15 03:18:51;;;;;;;30.73;5.35;;;;;;;21.86;61.81;97779.69;7305742;19;129133;-39
2023/01/15 03:21:25;;;;;;;18.95;3.90;;;;;;;21.87;61.42;97776.06;7311721;19;130282;-39
2023/01/15 03:23:53;;;;;;;20.88;4.13;;;;;;;21.85;61.74;97780.66;7308529;19;129395;-36
2023/01/15 03:26:19;;;;;;;17.33;3.80;;;;;;;21.82;60.62;97770.59;7311117;19;130448;-37
2023/01/15 03:28:46;;;;;;;27.52;4.18;;;;;;;21.84;61.47;97768.59;7307403;19;130552;-39
2023/01/15 03:31:12;;;;;;;29.42;4.80;;;;;;;21.85;61.77;97772.81;7310919;19;129093;-39
2023/01/15 03:33:38;;;;;;;31.73;5.43;;;;;;;21.87;61.53;97757.75;7311414;19;128994;-39
2023/01/15 03:36:04;;;;;;;30.40;4.60;;;;;;;21.75;61.90;97733.03;7311085;19;129271;-38
2023/01/15 03:38:34;;;;;;;30.87;5.00;;;;;;;21.85;61.77;97749.28;7310342;19;129693;-39
2023/01/15 03:41:25;;;;;;;39.85;5.63;;;;;;;21.87;62.12;97749.91;7311590;19;131224;-40
2023/01/15 03:44:02;;;;;;;26.92;4.32;;;;;;;21.76;62.07;97723.41;7308464;19;129487;-39
2023/01/15 03:47:00;;;;;;;26.40;4.75;;;;;;;21.86;61.56;97743.06;7311245;19;130531;-39
2023/01/15 03:49:31;;;;;;;33.92;5.03;;;;;;;21.77;61.75;97730.28;7311821;19;129207;-37
2023/01/15 03:52:11;;;;;;;24.33;4.38;;;;;;;21.87;62.10;97744.69;7310133;19;129521;-39
2023/01/15 03:54:43;;;;;;;24.15;4.25;;;;;;;21.85;61.29;97733.59;7311395;19;128780;-38
2023/01/15 03:57:23;;;;;;;24.30;4.45;;;;;;;21.83;61.82;97735.56;7309993;19;129377;-39
2023/01/15 04:00:00;;;;;;;20.63;3.88;;;;;;;21.84;61.56;97739.81;7310672;19;129176;-38
2023/01/15 04:02:28;;;;;;;26.55;4.90;;;;;;;21.74;61.23;97720.97;7308371;19;130589;-38
2023/01/15 04:04:55;;;;;;;35.05;5.05;;;;;;;21.84;60.97;97747.66;7310576;19;129078;-39
2023/01/15 04:07:22;;;;;;;20.65;4.00;;;;;;;21.82;61.28;97736.56;7309010;19;128973;-38
2023/01/15 04:09:47;;;;;;;16.83;3.28;;;;;;;21.83;61.87;97734.78;7311502;19;129444;-40
2023/01/15 04:12:13;;;;;;;25.30;4.10;;;;;;;21.87;61.40;97742.06;7307903;19;130342;-40
2023/01/15 04:14:39;;;;;;;35.53;5.13;;;;;;;21.85;61.89;97738.81;7310300;19;129365;-40
2023/01/15 04:17:04;;;;;;;33.93;5.30;;;;;;;21.85;61.42;97730.97;7305046;19;129704;-38
2023/01/15 04:19:29;;;;;;;27.87;4.77;;;;;;;21.85;61.36;97738.81;7309318;19;129369;-39
2023/01/15 04:21:55;;;;;;;59.22;8.82;;;;;;;21.86;61.25;97737.84;7306054;19;129401;-40
2023/01/15 04:24:20;;;;;;;27.77;4.20;;;;;;;21.84;61.62;97731.16;7308848;19;129967;-38
2023/01/15 04:26:45;;;;;;;31.58;4.97;;;;;;;21.84;61.39;97733.78;7309229;19;130111;-40
2023/01/15 04:29:11;;;;;;;23.63;3.53;;;;;;;21.85;61.50;97733.59;7305215;19;129630;-35
2023/01/15 04:31:36;;;;;;;29.52;4.50;;;;;;;21.78;61.46;97716.22;7307020;19;130341;-39
2023/01/15 04:34:02;;;;;;;28.50;4.60;;;;;;;21.84;61.36;97716.28;7307673;19;129064;-39
2023/01/15 04:36:28;;;;;;;18.55;3.33;;;;;;;21.83;61.98;97706.78;7309514;19;129681;-38
2023/01/15 04:38:53;;;;;;;22.40;3.58;;;;;;;21.83;61.04;97714.63;7301651;19;131032;-37
2023/01/15 04:44:06;;;;;;;27.48;3.95;;;;;;;21.83;61.39;97717.25;7308688;19;130391;-38
2023/01/15 04:46:33;;;;;;;32.92;4.63;;;;;;;21.82;61.54;97702.56;7308616;19;129349;-38
2023/01/15 04:48:59;;;;;;;25.55;4.03;;;;;;;21.80;61.70;97699.31;7308988;19;130950;-38
2023/01/15 04:51:24;;;;;;;20.27;3.63;;;;;;;21.80;61.42;97694.09;7309976;19;129025;-38
2023/01/15 04:53:49;;;;;;;31.60;4.55;;;;;;;21.80;61.10;97688.03;7308426;19;129471;-38
2023/01/15 04:56:15;;;;;;;9.05;2.38;;;;;;;21.79;61.86;97682.03;7309357;19;129698;-40
2023/01/15 04:58:40;;;;;;;22.17;3.50;;;;;;;21.78;62.32;97685.63;7305686;19;131088;-38
2023/01/15 05:01:14;;;;;;;27.13;4.53;;;;;;;21.74;62.26;97676.50;7309478;19;130381;-38
2023/01/15 05:03:40;;;;;;;24.70;4.05;;;;;;;21.69;62.17;97681.50;7306031;19;129333;-37
2023/01/15 05:06:06;;;;;;;26.00;4.15;;;;;;;21.70;62.14;97672.63;7307598;19;129210;-40
2023/01/15 05:08:32;;;;;;;9.50;2.55;;;;;;;21.68;61.44;97679.84;7308225;19;131323;-38
2023/01/15 05:11:05;;;;;;;19.63;3.33;;;;;;;21.68;62.48;97674.63;7308824;19;129775;-41
2023/01/15 05:13:32;;;;;;;20.98;3.70;;;;;;;21.64;61.57;97667.34;7305532;19;129316;-40
2023/01/15 05:16:20;;;;;;;28.80;4.00;;;;;;;21.61;62.71;97672.94;7307827;19;129649;-39
2023/01/15 05:18:46;;;;;;;29.88;4.07;;;;;;;21.59;62.26;97675.75;7307628;19;129844;-40
2023/01/15 05:21:26;;;;;;;24.02;3.55;;;;;;;21.61;62.87;97676.38;7308810;19;129969;-37
2023/01/15 05:23:53;;;;;;;20.05;3.35;;;;;;;21.49;62.75;97649.09;7308266;19;129775;-40
2023/01/15 05:26:20;;;;;;;18.23;3.13;;;;;;;21.59;62.56;97670.53;7308050;19;130880;-37
2023/01/15 05:28:45;;;;;;;27.30;3.75;;;;;;;21.63;62.35;97669.16;7308174;19;130153;-39
2023/01/15 05:31:14;;;;;;;30.08;4.07;;;;;;;21.62;62.20;97664.91;7308206;19;129411;-38
2023/01/15 05:33:40;;;;;;;25.55;4.15;;;;;;;21.60;62.26;97655.66;7304494;19;129624;-37
2023/01/15 05:36:09;;;;;;;18.00;3.20;;;;;;;21.63;62.47;97663.94;7306781;19;129000;-38
2023/01/15 05:38:35;;;;;;;25.42;3.88;;;;;;;21.60;61.94;97645.97;7308280;19;129607;-37
2023/01/15 05:43:54;;;;;;;25.50;3.92;;;;;;;21.66;62.60;97654.91;7313945;19;128934;-36
2023/01/15 05:46:19;;;;;;;16.08;2.67;;;;;;;21.67;62.08;97659.13;7314177;19;129738;-39
2023/01/15 05:48:44;;;;;;;19.30;3.13;;;;;;;21.66;62.41;97660.94;7314082;19;129597;-40
2023/01/15 05:51:10;;;;;;;35.17;4.70;;;;;;;21.66;62.49;97655.72;7313416;19;129459;-38
2023/01/15 05:53:36;;;;;;;28.00;4.13;;;;;;;21.57;61.91;97643.75;7312531;19;129238;-38
2023/01/15 05:56:02;;;;;;;5.47;1.80;;;;;;;21.68;62.43;97661.53;7314656;19;129036;-41
2023/01/15 05:58:27;;;;;;;22.67;3.63;;;;;;;21.60;62.39;97645.97;7315257;19;129056;-40
2023/01/15 06:00:53;;;;;;;22.07;3.47;;;;;;;21.72;61.95;97652.34;7311890;19;129530;-37
2023/01/15 06:03:21;;;;;;;25.48;3.75;;;;;;;21.73;61.90;97648.72;7309390;19;129861;-40
2023/01/15 06:05:54;;;;;;;24.95;3.42;;;;;;;21.75;62.38;97648.56;7312544;19;129161;-39
2023/01/15 06:08:20;;;;;;;22.30;3.05;;;;;;;21.75;62.06;97649.34;7314781;19;129631;-40
2023/01/15 06:10:47;;;;;;;7.60;2.28;;;;;;;21.66;61.68;97640.03;7313994;19;129609;-40
2023/01/15 06:13:13;;;;;;;33.57;4.40;;;;;;;21.77;61.81;97657.84;7311018;19;129573;-39
2023/01/15 06:15:39;;;;;;;17.63;3.10;;;;;;;21.77;62.04;97647.38;7313445;19;129111;-41
2023/01/15 06:18:05;;;;;;;28.15;3.72;;;;;;;21.76;61.74;97645.78;7314774;19;129549;-39
2023/01/15 06:20:30;;;;;;;18.55;3.40;;;;;;;21.78;61.92;97638.53;7310791;19;129183;-42
2023/01/15 06:22:56;;;;;;;36.60;4.27;;;;;;;21.78;62.21;97627.28;7310815;19;129651;-40
2023/01/15 06:25:21;;;;;;;26.63;4.60;;;;;;;21.79;61.66;97634.94;7312265;19;129745;-37
2023/01/15 06:27:48;;;;;;;16.57;2.60;;;;;;;21.80;62.29;97630.50;7311445;19;131423;-41
2023/01/15 06:30:14;;;;;;;20.02;2.97;;;;;;;21.68;61.90;97616.28;7311326;19;129855;-38
2023/01/15 06:32:39;;;;;;;37.33;4.90;;;;;;;21.78;61.55;97650.81;7311572;19;129304;-39
2023/01/15 06:35:05;;;;;;;37.85;5.95;;;;;;;21.79;61.45;97697.72;7313208;19;129342;-40
2023/01/15 06:37:30;;;;;;;27.63;4.20;;;;;;;21.79;62.03;97723.88;7311603;19;129492;-40
2023/01/15 06:39:55;;;;;;;24.30;3.35;;;;;;;21.79;61.37;97725.66;7313144;19;129169;-38
2023/01/15 06:47:49;;;;;;;17.15;2.95;;;;;;;21.78;62.13;97779.78;7314599;19;128896;-40
2023/01/15 06:50:15;;;;;;;20.08;3.03;;;;;;;21.81;62.01;97776.00;7310917;19;129731;-40
2023/01/15 06:52:40;;;;;;;34.42;4.50;;;;;;;21.75;61.19;97785.34;7310104;19;129632;-39
2023/01/15 06:55:06;;;;;;;88.82;10.25;;;;;;;21.79;61.81;97823.28;7301348;19;130400;-38
2023/01/15 06:57:32;;;;;;;24.77;3.67;;;;;;;21.82;61.09;97827.31;7312010;19;129321;-35
2023/01/15 06:59:57;;;;;;;31.88;4.03;;;;;;;21.83;61.49;97840.22;7306800;19;129584;-39
2023/01/15 07:02:23;;;;;;;22.10;3.40;;;;;;;21.82;61.45;97843.81;7308445;19;128948;-38
2023/01/15 07:04:48;;;;;;;27.95;3.60;;;;;;;21.84;61.69;97847.09;7305161;19;130805;-40
2023/01/15 07:07:15;;;;;;;16.63;2.70;;;;;;;21.84;61.61;97852.31;7311022;19;129266;-37
2023/01/15 07:09:40;;;;;;;39.17;5.03;;;;;;;21.85;61.88;97853.91;7306398;19;130197;-38
2023/01/15 07:12:09;;;;;;;34.67;4.60;;;;;;;21.83;61.53;97850.66;7305883;19;129186;-38
2023/01/15 07:14:35;;;;;;;38.38;5.03;;;;;;;21.84;61.49;97857.53;7309595;19;129904;-38
2023/01/15 07:17:01;;;;;;;33.80;4.57;;;;;;;21.78;61.21;97842.56;7305941;19;130488;-38
2023/01/15 07:19:26;;;;;;;22.35;3.50;;;;;;;21.82;61.65;97859.53;7304120;19;129900;-40
2023/01/15 07:21:52;;;;;;;43.45;5.25;;;;;;;21.84;61.62;97877.66;7308930;19;128877;-40
2023/01/15 07:24:17;;;;;;;28.57;3.63;;;;;;;21.84;61.58;97873.25;7306007;19;130681;-37
2023/01/15 07:26:44;;;;;;;30.00;4.23;;;;;;;21.82;61.94;97870.00;7302070;19;131277;-38
2023/01/15 07:29:10;;;;;;;25.80;3.40;;;;;;;21.82;61.42;97871.78;7308580;19;129542;-38
2023/01/15 07:31:36;;;;;;;26.48;3.47;;;;;;;21.80;61.09;97877.19;7307927;19;131187;-39
2023/01/15 07:34:02;;;;;;;61.37;6.93;;;;;;;21.82;61.58;97874.41;7304506;19;129555;-39
2023/01/15 07:36:28;;;;;;;20.23;2.83;;;;;;;21.78;60.91;97889.66;7307824;19;129994;-36
2023/01/15 07:38:53;;;;;;;28.38;3.70;;;;;;;21.80;61.34;97889.47;7309977;19;129584;-36
2023/01/15 07:49:45;;;;;;;29.25;3.78;;;;;;;21.77;61.35;97919.44;7303908;19;129716;-39
2023/01/15 07:52:15;;;;;;;43.30;5.53;;;;;;;21.76;61.70;97925.66;7304693;19;130118;-38
2023/01/15 07:54:41;;;;;;;17.73;2.40;;;;;;;21.77;61.23;97937.75;7309145;19;130024;-39
2023/01/15 07:57:07;;;;;;;17.50;2.60;;;;;;;21.79;61.41;97951.44;7309820;19;130134;-41
2023/01/15 07:59:32;;;;;;;27.87;3.67;;;;;;;21.79;61.72;97958.47;7309195;19;130600;-37
2023/01/15 08:01:58;;;;;;;29.27;4.13;;;;;;;21.78;61.19;97957.66;7309023;19;128978;-40
2023/01/15 08:04:23;;;;;;;30.27;3.50;;;;;;;21.78;61.47;97952.44;7309720;19;129062;-39
2023/01/15 08:06:48;;;;;;;18.17;2.47;;;;;;;21.74;61.89;97953.78;7306426;19;129695;-40
2023/01/15 08:09:14;;;;;;;28.40;3.30;;;;;;;21.73;61.41;97970.44;7311314;19;129605;-40
2023/01/15 08:17:07;;;;;;;18.10;2.38;;;;;;;21.74;61.00;97979.09;7310281;19;129444;-40
2023/01/15 08:19:32;;;;;;;40.05;4.80;;;;;;;21.75;62.01;97975.50;7310246;19;129221;-39
2023/01/15 08:22:00;;;;;;;22.92;3.38;;;;;;;21.67;62.24;97955.47;7309965;19;129238;-36
2023/01/15 08:24:25;;;;;;;20.27;2.83;;;;;;;21.75;61.36;97978.13;7309621;19;128911;-38
2023/01/15 08:26:51;;;;;;;15.70;2.38;;;;;;;21.64;61.94;97961.06;7309392;19;129871;-40
2023/01/15 08:29:17;;;;;;;22.37;2.63;;;;;;;21.74;61.91;97990.38;7309868;19;129678;-39
2023/01/15 08:31:43;;;;;;;24.60;3.40;;;;;;;21.70;61.75;97989.09;7309168;19;129283;-40
2023/01/15 08:34:09;;;;;;;29.95;3.58;;;;;;;21.76;61.49;98000.66;7307113;19;129755;-39
2023/01/15 08:36:36;;;;;;;17.17;2.47;;;;;;;21.74;61.99;97998.22;7309663;19;130093;-38
2023/01/15 08:39:02;;;;;;;29.73;3.30;;;;;;;21.75;61.46;97993.81;7310296;19;129311;-41
2023/01/15 08:41:29;;;;;;;19.35;2.55;;;;;;;21.76;61.97;97988.44;7309868;19;129738;-40
2023/01/15 08:43:54;;;;;;;35.15;3.90;;;;;;;21.76;61.75;97972.75;7308857;19;129080;-38
2023/01/15 08:46:19;;;;;;;18.98;2.33;;;;;;;21.74;61.72;97974.69;7308669;19;129906;-39
2023/01/15 08:48:45;;;;;;;20.45;2.50;;;;;;;21.75;61.48;97971.06;7310412;19;129159;-40
2023/01/15 08:51:11;;;;;;;24.43;2.90;;;;;;;21.65;62.08;97949.59;7309431;19;129193;-41
2023/01/15 08:53:37;;;;;;;24.00;3.27;;;;;;;21.71;61.73;97959.38;7307800;19;129604;-39
2023/01/15 08:56:03;;;;;;;21.33;2.67;;;;;;;21.74;61.83;97974.69;7308589;19;130021;-40
2023/01/15 08:58:30;;;;;;;19.07;2.70;;;;;;;21.74;61.49;97966.84;7308494;19;129204;-36
2023/01/15 09:01:03;;;;;;;22.13;2.53;;;;;;;21.66;62.29;97979.19;7309036;19;129666;-38
2023/01/15 09:03:28;;;;;;;31.02;3.85;;;;;;;21.73;61.64;98001.81;7308112;19;129076;-40
2023/01/15 09:05:57;;;;;;;20.48;2.78;;;;;;;21.73;62.11;98017.50;7308352;19;129112;-40
2023/01/15 09:08:22;;;;;;;14.25;2.10;;;;;;;21.74;61.76;98019.16;7309196;19;129874;-41
2023/01/15 09:10:47;;;;;;;23.42;2.58;;;;;;;21.73;61.93;98009.66;7308719;19;129149;-39
2023/01/15 09:13:13;;;;;;;37.30;4.30;;;;;;;21.64;61.76;98002.91;7304780;19;129427;-36
2023/01/15 09:15:38;;;;;;;17.20;2.33;;;;;;;21.74;61.68;98019.16;7309078;19;129489;-40
2023/01/15 09:18:04;;;;;;;43.08;5.35;;;;;;;21.74;61.89;98006.09;7310760;19;130955;-40
2023/01/15 09:20:29;;;;;;;21.70;2.92;;;;;;;21.66;62.05;97985.25;7315736;19;129076;-41
2023/01/15 09:22:54;;;;;;;23.27;2.75;;;;;;;21.72;62.02;98002.00;7314296;19;129233;-36
2023/01/15 09:25:22;;;;;;;28.03;3.90;;;;;;;21.64;62.28;97997.69;7313243;19;129706;-40
2023/01/15 09:27:48;;;;;;;25.17;3.22;;;;;;;21.71;61.23;98010.84;7314803;19;129399;-38
2023/01/15 09:30:19;;;;;;;20.23;2.23;;;;;;;21.71;62.45;98009.06;7315081;19;128867;-40
2023/01/15 09:32:45;;;;;;;19.77;2.45;;;;;;;21.69;62.13;98005.81;7312800;19;129461;-39
2023/01/15 09:35:10;;;;;;;46.65;5.20;;;;;;;21.71;62.01;98014.28;7314208;19;129362;-34
2023/01/15 09:37:36;;;;;;;9.55;1.55;;;;;;;21.69;62.03;98013.66;7314886;19;129173;-41
2023/01/15 09:40:03;;;;;;;24.80;2.95;;;;;;;21.70;61.60;98007.41;7315293;19;129167;-40
2023/01/15 09:42:57;;;;;;;;;;;;;;;21.75;62.74;98002.47;7313504;19;129550;-40
2023/01/15 09:45:27;;;;;;;33.08;4.35;;;;;;;21.66;62.42;97997.50;7313240;19;130244;-37
2023/01/15 09:48:08;;;;;;;16.38;2.15;;;;;;;21.69;62.70;98005.81;7315339;19;129589;-39
2023/01/15 09:50:45;;;;;;;30.15;3.50;;;;;;;21.69;62.81;98010.22;7315501;19;129823;-39
2023/01/15 09:53:35;;;;;;;25.92;3.20;;;;;;;21.69;62.32;97995.34;7312466;19;129418;-36
2023/01/15 09:56:03;;;;;;;22.42;2.95;;;;;;;21.68;61.97;98009.38;7313794;19;130663;-37
2023/01/15 09:58:35;;;;;;;27.05;3.38;;;;;;;21.68;62.33;98003.38;7313810;19;129590;-40
2023/01/15 10:01:01;;;;;;;26.30;3.17;;;;;;;21.66;62.00;97990.47;7313903;19;129244;-40
2023/01/15 10:04:03;;;;;;;25.38;3.00;;;;;;;21.68;62.67;97983.22;7313992;19;129063;-39
2023/01/15 10:06:39;;;;;;;25.23;2.95;;;;;;;21.70;62.03;97986.50;7309712;19;130266;-41
2023/01/15 10:09:19;;;;;;;30.83;3.28;;;;;;;21.69;62.26;97978.81;7315672;19;129749;-38
2023/01/15 10:14:49;;;;;;;24.75;2.83;;;;;;;21.68;62.98;97975.38;7311803;19;129348;-39
2023/01/15 10:17:21;;;;;;;16.27;2.05;;;;;;;21.70;62.22;97990.94;7313422;19;129097;-40
2023/01/15 10:19:47;;;;;;;22.55;2.97;;;;;;;21.70;61.88;98001.41;7314662;19;130316;-40
2023/01/15 10:22:43;;;;;;;25.20;3.22;;;;;;;21.72;62.89;98010.66;7310771;19;129312;-37
2023/01/15 10:25:15;;;;;;;21.42;2.70;;;;;;;21.71;62.28;98009.06;7313868;19;129264;-38
2023/01/15 10:27:45;;;;;;;20.08;2.35;;;;;;;21.69;62.37;98016.25;7314671;19;129919;-40
2023/01/15 10:30:40;;;;;;;17.92;2.47;;;;;;;21.73;62.47;98021.97;7310787;19;129131;-38
2023/01/15 10:33:37;;;;;;;26.80;3.22;;;;;;;21.59;62.79;98010.47;7309842;19;129801;-41
2023/01/15 10:36:25;;;;;;;20.92;2.42;;;;;;;21.66;61.70;98019.25;7309611;19;129408;-38
2023/01/15 10:39:18;;;;;;;15.80;1.92;;;;;;;21.67;62.38;98022.66;7310440;19;129474;-38
2023/01/15 10:42:10;;;;;;;18.38;2.25;;;;;;;21.70;62.31;98030.97;7313219;19;129301;-38
2023/01/15 10:44:54;;;;;;;22.25;2.70;;;;;;;21.65;62.42;98035.91;7314091;19;129332;-40
2023/01/15 10:47:27;;;;;;;16.90;1.88;;;;;;;21.52;61.88;98025.25;7312397;19;130352;-38
2023/01/15 10:49:53;;;;;;;31.30;3.35;;;;;;;21.62;62.49;98035.44;7312522;19;129314;-39
2023/01/15 10:52:28;;;;;;;28.25;3.45;;;;;;;21.57;62.52;98022.09;7310172;19;129249;-39
2023/01/15 10:55:02;;;;;;;15.98;1.98;;;;;;;21.64;63.17;98043.94;7314932;19;130264;-39
2023/01/15 10:57:54;;;;;;;19.02;2.38;;;;;;;21.69;62.54;98052.88;7309551;19;129354;-38
2023/01/15 11:00:21;;;;;;;14.20;1.70;;;;;;;21.65;61.89;98059.44;7310574;19;129844;-41
2023/01/15 11:02:53;;;;;;;14.88;1.73;;;;;;;21.56;62.16;98036.16;7309935;19;129650;-39
2023/01/15 11:05:20;;;;;;;27.58;3.50;;;;;;;21.66;62.67;98058.47;7306397;19;129365;-40
2023/01/15 11:07:50;;;;;;;29.70;3.22;;;;;;;21.66;62.32;98061.09;7311769;19;130000;-40
2023/01/15 11:10:20;;;;;;;19.95;2.28;;;;;;;21.56;62.13;98038.78;7306216;19;129708;-38
2023/01/15 11:21:30;;;;;;;21.63;2.45;;;;;;;21.59;62.09;98041.03;7312583;19;129837;-39
2023/01/15 11:23:58;;;;;;;13.80;1.77;;;;;;;21.65;62.18;98048.19;7311179;19;130770;-37
2023/01/15 11:26:23;;;;;;;18.92;2.60;;;;;;;21.63;61.77;98047.56;7310212;19;129323;-41
2023/01/15 11:28:49;;;;;;;31.73;3.33;;;;;;;21.66;61.93;98048.00;7312156;19;129394;-39
2023/01/15 11:31:15;;;;;;;16.80;1.85;;;;;;;21.65;61.65;98051.59;7312026;19;129489;-39
2023/01/15 11:33:56;;;;;;;10.60;1.58;;;;;;;21.65;62.33;98041.13;7308938;19;129327;-38
2023/01/15 11:36:24;;;;;;;16.45;2.00;;;;;;;21.66;62.01;98041.97;7310079;19;129283;-40
2023/01/15 11:38:50;;;;;;;81.78;9.05;;;;;;;21.62;62.05;98036.25;7307215;19;128945;-36
2023/01/15 11:52:57;;;;;;;25.70;2.80;;;;;;;21.63;63.17;98056.22;7308108;19;129048;-41
2023/01/15 11:55:27;;;;;;;38.33;4.38;;;;;;;21.62;62.32;98057.19;7309628;19;129279;-41
2023/01/15 11:57:55;;;;;;;22.08;2.50;;;;;;;21.60;62.51;98053.13;7312251;19;128935;-40
2023/01/15 12:00:25;;;;;;;20.05;1.88;;;;;;;21.52;62.90;98034.88;7313126;19;129376;-38
2023/01/15 12:02:58;;;;;;;10.63;1.35;;;;;;;21.61;62.40;98045.13;7311026;19;129440;-40
2023/01/15 12:05:28;;;;;;;19.90;2.35;;;;;;;21.61;62.31;98045.13;7311219;19;129810;-37
2023/01/15 12:07:57;;;;;;;21.77;2.25;;;;;;;21.60;62.35;98045.28;7312630;19;129715;-41
2023/01/15 12:11:04;;;;;;;19.58;2.30;;;;;;;21.64;62.56;98054.41;7312965;19;128912;-35
2023/01/15 12:13:48;;;;;;;24.13;2.50;;;;;;;21.63;62.40;98065.84;7310814;19;130963;-39
2023/01/15 12:16:25;;;;;;;24.05;2.63;;;;;;;21.60;62.86;98059.16;7311335;19;129326;-40
2023/01/15 12:19:12;;;;;;;28.92;2.75;;;;;;;21.63;62.77;98052.78;7313465;19;129371;-39
2023/01/15 12:21:49;;;;;;;18.88;2.28;;;;;;;21.63;62.43;98053.59;7312114;19;129228;-40